Time;durP1;ratioP1;P1;durP2;ratioP2;P2;SDS_P1;SDS_P2;PMS_P1;PMS_P2;Temp;Humidity;BMP_temperature;BMP_pressure;BME280_temperature;BME280_humidity;BME280_pressure;Samples;Min_cycle;Max_cycle;Signal;HPM_P1;HPM_P2
2023/07/15 00:00:32;;;;;;;10.50;6.57;;;;;;;;;;10536716;28;20058;-85
2023/07/15 00:05:37;;;;;;;9.35;6.43;;;;;;;;;;10539553;28;20032;-84
2023/07/15 00:10:40;;;;;;;9.25;7.10;;;;;;;;;;10538420;28;20127;-84
2023/07/15 00:15:42;;;;;;;10.18;6.93;;;;;;;;;;10536165;28;20365;-85
2023/07/15 00:20:47;;;;;;;12.43;7.32;;;;;;;;;;10538506;28;20027;-84
2023/07/15 00:25:50;;;;;;;8.63;6.72;;;;;;;;;;10554214;28;20048;-84
2023/07/15 00:30:52;;;;;;;10.77;6.75;;;;;;;;;;10541673;28;20039;-86
2023/07/15 00:35:53;;;;;;;14.57;6.82;;;;;;;;;;10545207;28;20153;-84
2023/07/15 00:40:54;;;;;;;8.45;6.70;;;;;;;;;;10533064;28;20179;-85
2023/07/15 00:46:14;;;;;;;7.95;6.72;;;;;;;;;;10536344;28;20704;-85
2023/07/15 00:51:16;;;;;;;10.10;6.85;;;;;;;;;;10537390;28;20047;-84
2023/07/15 00:56:17;;;;;;;10.27;7.25;;;;;;;;;;10532338;28;20795;-85
2023/07/15 01:01:18;;;;;;;10.68;7.70;;;;;;;;;;10531066;28;20376;-84
2023/07/15 01:06:19;;;;;;;13.52;8.25;;;;;;;;;;10541001;28;20031;-86
2023/07/15 01:11:21;;;;;;;10.05;7.18;;;;;;;;;;10542759;28;20039;-84
2023/07/15 01:16:23;;;;;;;10.80;7.13;;;;;;;;;;10532072;28;20139;-84
2023/07/15 01:21:26;;;;;;;10.32;6.90;;;;;;;;;;10526011;28;20643;-84
2023/07/15 01:26:27;;;;;;;11.27;7.40;;;;;;;;;;10538148;28;20080;-84
2023/07/15 01:31:30;;;;;;;11.88;7.47;;;;;;;;;;10541674;28;20031;-85
2023/07/15 01:36:31;;;;;;;9.07;6.45;;;;;;;;;;10532085;28;20075;-82
2023/07/15 01:41:32;;;;;;;11.38;7.75;;;;;;;;;;10541474;28;20111;-83
2023/07/15 01:46:36;;;;;;;12.90;8.55;;;;;;;;;;10524151;28;20043;-81
2023/07/15 01:51:37;;;;;;;11.70;8.30;;;;;;;;;;10538509;28;20032;-82
2023/07/15 01:56:41;;;;;;;9.93;7.70;;;;;;;;;;10549032;28;20535;-82
2023/07/15 02:01:42;;;;;;;11.82;7.72;;;;;;;;;;10529316;28;20031;-82
2023/07/15 02:06:43;;;;;;;13.60;7.53;;;;;;;;;;10547981;28;20035;-82
2023/07/15 02:11:44;;;;;;;11.65;7.85;;;;;;;;;;10541899;28;20035;-82
2023/07/15 02:16:45;;;;;;;9.82;7.40;;;;;;;;;;10550603;28;20039;-82
2023/07/15 02:21:46;;;;;;;12.25;7.80;;;;;;;;;;10539267;28;20064;-82
2023/07/15 02:26:47;;;;;;;13.77;7.90;;;;;;;;;;10545058;28;20642;-81
2023/07/15 02:31:49;;;;;;;13.52;9.02;;;;;;;;;;10529513;28;20679;-82
2023/07/15 02:36:50;;;;;;;11.13;7.68;;;;;;;;;;10539120;28;20133;-81
2023/07/15 02:41:51;;;;;;;11.63;8.18;;;;;;;;;;10533237;28;20032;-82
2023/07/15 02:46:52;;;;;;;11.55;7.95;;;;;;;;;;10532151;28;20067;-82
2023/07/15 02:51:53;;;;;;;11.93;8.00;;;;;;;;;;10539409;28;20044;-82
2023/07/15 02:56:56;;;;;;;13.20;8.70;;;;;;;;;;10529838;22;20060;-82
2023/07/15 03:01:57;;;;;;;13.68;9.13;;;;;;;;;;10485346;28;20077;-83
2023/07/15 03:06:58;;;;;;;12.02;8.50;;;;;;;;;;10503036;28;20587;-82
2023/07/15 03:11:59;;;;;;;11.02;8.93;;;;;;;;;;10496132;28;20040;-83
2023/07/15 03:17:01;;;;;;;17.45;9.65;;;;;;;;;;10491255;28;20071;-82
2023/07/15 03:22:03;;;;;;;11.60;8.30;;;;;;;;;;10489605;28;20773;-81
2023/07/15 03:27:04;;;;;;;12.85;8.88;;;;;;;;;;10493038;28;20042;-82
2023/07/15 03:32:05;;;;;;;13.40;8.60;;;;;;;;;;10486188;28;20048;-82
2023/07/15 03:37:06;;;;;;;11.95;8.55;;;;;;;;;;10489841;28;20511;-83
2023/07/15 03:42:08;;;;;;;13.52;8.65;;;;;;;;;;10499490;28;20455;-82
2023/07/15 03:47:09;;;;;;;10.90;8.40;;;;;;;;;;10489996;28;20043;-82
2023/07/15 03:52:10;;;;;;;12.52;9.13;;;;;;;;;;10499657;28;20074;-83
2023/07/15 03:57:12;;;;;;;11.65;9.10;;;;;;;;;;10494267;28;20102;-81
2023/07/15 04:02:13;;;;;;;11.70;8.30;;;;;;;;;;10493177;28;20060;-81
2023/07/15 04:07:14;;;;;;;14.43;9.85;;;;;;;;;;10528391;22;20178;-82
2023/07/15 04:12:15;;;;;;;11.32;8.82;;;;;;;;;;10554371;28;20470;-82
2023/07/15 04:17:16;;;;;;;13.57;9.23;;;;;;;;;;10538997;28;20492;-82
2023/07/15 04:22:17;;;;;;;14.20;8.68;;;;;;;;;;10529557;28;20107;-81
2023/07/15 04:27:18;;;;;;;13.50;9.95;;;;;;;;;;10541449;28;20173;-82
2023/07/15 04:32:19;;;;;;;12.57;9.27;;;;;;;;;;10538623;28;20450;-82
2023/07/15 04:37:20;;;;;;;14.55;9.27;;;;;;;;;;10546796;28;20028;-82
2023/07/15 04:42:21;;;;;;;12.85;9.30;;;;;;;;;;10543244;28;20036;-82
2023/07/15 04:47:22;;;;;;;12.18;8.05;;;;;;;;;;10534161;28;20020;-83
2023/07/15 04:52:23;;;;;;;13.18;8.52;;;;;;;;;;10565641;28;20038;-82
2023/07/15 04:57:24;;;;;;;12.35;8.93;;;;;;;;;;10545670;28;20020;-83
2023/07/15 05:02:25;;;;;;;15.65;8.77;;;;;;;;;;10533563;28;20016;-81
2023/07/15 05:07:26;;;;;;;12.48;8.32;;;;;;;;;;10550722;28;20052;-83
2023/07/15 05:12:27;;;;;;;9.30;7.55;;;;;;;;;;10533425;28;20088;-86
2023/07/15 05:17:29;;;;;;;11.98;8.48;;;;;;;;;;10533285;28;20064;-86
2023/07/15 05:22:30;;;;;;;11.95;7.93;;;;;;;;;;10529308;28;20032;-87
2023/07/15 05:27:40;;;;;;;11.52;8.23;;;;;;;;;;10540584;28;20691;-89
2023/07/15 05:32:41;;;;;;;10.43;7.97;;;;;;;;;;10540176;28;20078;-87
2023/07/15 05:37:42;;;;;;;12.60;7.82;;;;;;;;;;10537789;28;20033;-85
2023/07/15 05:42:43;;;;;;;9.15;6.97;;;;;;;;;;10550719;28;20024;-86
2023/07/15 05:47:44;;;;;;;8.90;6.43;;;;;;;;;;10546891;28;20076;-88
2023/07/15 05:52:45;;;;;;;8.38;6.30;;;;;;;;;;10569801;28;20578;-88
2023/07/15 05:57:46;;;;;;;7.30;6.38;;;;;;;;;;10557995;28;20034;-85
2023/07/15 06:02:47;;;;;;;8.05;5.78;;;;;;;;;;10530181;28;20060;-85
2023/07/15 06:07:49;;;;;;;8.23;5.18;;;;;;;;;;10559279;28;20056;-88
2023/07/15 06:12:50;;;;;;;6.53;5.45;;;;;;;;;;10537788;28;20063;-86
2023/07/15 06:17:51;;;;;;;8.25;5.72;;;;;;;;;;10555766;28;20050;-88
2023/07/15 06:22:52;;;;;;;8.30;5.30;;;;;;;;;;10570977;28;20027;-86
2023/07/15 06:27:53;;;;;;;9.02;5.45;;;;;;;;;;10564200;28;20032;-86
2023/07/15 06:32:55;;;;;;;7.22;5.47;;;;;;;;;;10548912;28;20035;-85
2023/07/15 06:37:56;;;;;;;8.70;5.50;;;;;;;;;;10517146;28;20127;-86
2023/07/15 06:42:57;;;;;;;7.03;5.25;;;;;;;;;;10543414;28;20743;-85
2023/07/15 06:47:58;;;;;;;5.50;4.47;;;;;;;;;;10521272;28;20038;-86
2023/07/15 06:52:59;;;;;;;6.05;4.68;;;;;;;;;;10564392;28;20491;-89
2023/07/15 06:58:01;;;;;;;6.47;4.43;;;;;;;;;;10560434;28;20019;-85
2023/07/15 07:03:02;;;;;;;7.22;4.25;;;;;;;;;;10568350;28;20034;-86
2023/07/15 07:08:12;;;;;;;5.35;4.20;;;;;;;;;;10527716;28;20052;-89
2023/07/15 07:13:13;;;;;;;6.35;4.10;;;;;;;;;;10523350;28;20040;-85
2023/07/15 07:18:14;;;;;;;5.35;3.30;;;;;;;;;;10555095;28;20028;-84
2023/07/15 07:23:15;;;;;;;7.70;3.50;;;;;;;;;;10535997;28;20115;-88
2023/07/15 07:28:16;;;;;;;4.82;3.53;;;;;;;;;;10512496;28;20438;-87
2023/07/15 07:33:19;;;;;;;4.47;3.30;;;;;;;;;;10526801;28;20594;-87
2023/07/15 07:38:20;;;;;;;4.93;3.35;;;;;;;;;;10524615;28;20031;-87
2023/07/15 07:43:21;;;;;;;4.97;3.10;;;;;;;;;;10518315;28;20054;-89
2023/07/15 07:48:22;;;;;;;6.53;3.40;;;;;;;;;;10505982;28;20028;-85
2023/07/15 07:53:24;;;;;;;3.38;2.88;;;;;;;;;;10523308;28;20037;-85
2023/07/15 07:58:25;;;;;;;5.20;3.10;;;;;;;;;;10514571;28;20066;-84
2023/07/15 08:03:26;;;;;;;4.53;3.13;;;;;;;;;;10527296;28;20031;-86
2023/07/15 08:08:28;;;;;;;4.20;3.08;;;;;;;;;;10529098;28;20066;-84
2023/07/15 08:13:29;;;;;;;5.40;2.90;;;;;;;;;;10522494;28;20369;-83
2023/07/15 08:18:30;;;;;;;3.58;2.83;;;;;;;;;;10526697;28;20024;-82
2023/07/15 08:23:31;;;;;;;3.78;2.78;;;;;;;;;;10531525;28;20030;-83
2023/07/15 08:28:32;;;;;;;3.53;2.78;;;;;;;;;;10521142;28;20047;-83
2023/07/15 08:33:33;;;;;;;4.57;3.40;;;;;;;;;;10521589;28;20518;-83
2023/07/15 08:38:34;;;;;;;4.88;3.35;;;;;;;;;;10533694;28;20399;-82
2023/07/15 08:43:35;;;;;;;4.38;3.20;;;;;;;;;;10527506;28;20043;-85
2023/07/15 08:48:36;;;;;;;3.00;2.67;;;;;;;;;;10521694;28;20040;-84
2023/07/15 08:53:38;;;;;;;5.25;3.00;;;;;;;;;;10509930;28;20517;-84
2023/07/15 08:58:39;;;;;;;3.97;3.50;;;;;;;;;;10521177;28;20030;-85
2023/07/15 09:04:08;;;;;;;3.95;2.75;;;;;;;;;;10539729;28;20412;-88
2023/07/15 09:09:12;;;;;;;4.05;3.00;;;;;;;;;;10523184;28;20136;-85
2023/07/15 09:14:16;;;;;;;3.55;2.75;;;;;;;;;;10539794;28;20541;-87
2023/07/15 09:19:21;;;;;;;3.45;3.10;;;;;;;;;;10534358;28;20031;-87
2023/07/15 09:24:22;;;;;;;2.75;2.38;;;;;;;;;;10531981;28;20674;-83
2023/07/15 09:29:23;;;;;;;4.25;2.80;;;;;;;;;;10529798;28;20075;-85
2023/07/15 09:34:25;;;;;;;5.00;2.80;;;;;;;;;;10567172;28;20031;-87
2023/07/15 09:39:26;;;;;;;2.90;2.58;;;;;;;;;;10561214;28;20035;-86
2023/07/15 09:44:34;;;;;;;3.53;2.60;;;;;;;;;;10536762;28;20031;-85
2023/07/15 09:49:36;;;;;;;3.35;2.42;;;;;;;;;;10557779;28;20171;-85
2023/07/15 09:54:39;;;;;;;5.55;2.65;;;;;;;;;;10546451;28;20035;-87
2023/07/15 09:59:42;;;;;;;4.13;2.25;;;;;;;;;;10546556;28;20062;-85
2023/07/15 10:04:44;;;;;;;3.45;2.22;;;;;;;;;;10541914;28;20375;-85
2023/07/15 10:09:45;;;;;;;2.85;2.22;;;;;;;;;;10556503;28;20376;-85
2023/07/15 10:14:46;;;;;;;2.55;2.25;;;;;;;;;;10525607;28;20040;-87
2023/07/15 10:19:49;;;;;;;2.90;2.53;;;;;;;;;;10552634;28;20570;-86
2023/07/15 10:24:56;;;;;;;3.22;2.30;;;;;;;;;;10551069;28;20681;-86
2023/07/15 10:30:23;;;;;;;6.38;2.30;;;;;;;;;;10543874;28;20024;-86
2023/07/15 10:35:26;;;;;;;4.15;2.50;;;;;;;;;;10495171;28;20090;-84
2023/07/15 10:40:46;;;;;;;2.33;2.13;;;;;;;;;;10547876;28;20027;-88
2023/07/15 10:45:51;;;;;;;3.67;2.53;;;;;;;;;;10570201;28;20023;-85
2023/07/15 10:50:53;;;;;;;2.38;2.17;;;;;;;;;;10565028;28;20437;-88
2023/07/15 10:55:58;;;;;;;3.58;2.60;;;;;;;;;;10536148;28;20040;-86
2023/07/15 11:01:00;;;;;;;4.18;2.92;;;;;;;;;;10517815;28;20028;-86
2023/07/15 11:06:01;;;;;;;4.00;2.38;;;;;;;;;;10555412;28;20063;-85
2023/07/15 11:11:04;;;;;;;2.58;2.38;;;;;;;;;;10529481;28;20032;-85
2023/07/15 11:16:05;;;;;;;4.45;2.15;;;;;;;;;;10550257;28;20749;-84
2023/07/15 11:21:06;;;;;;;3.47;2.50;;;;;;;;;;10557451;28;20036;-85
2023/07/15 11:26:11;;;;;;;4.90;2.88;;;;;;;;;;10563567;28;20055;-87
2023/07/15 11:31:12;;;;;;;3.38;2.10;;;;;;;;;;10555834;28;20039;-86
2023/07/15 11:36:13;;;;;;;3.08;2.05;;;;;;;;;;10554171;28;20036;-86
2023/07/15 11:41:14;;;;;;;4.15;2.55;;;;;;;;;;10545013;28;20593;-86
2023/07/15 11:46:15;;;;;;;2.58;2.30;;;;;;;;;;10557863;28;20028;-87
2023/07/15 11:51:16;;;;;;;3.28;2.50;;;;;;;;;;10557032;28;20532;-86
2023/07/15 11:56:34;;;;;;;3.47;2.60;;;;;;;;;;10542018;28;20048;-85
2023/07/15 12:01:36;;;;;;;2.90;2.60;;;;;;;;;;10550049;28;20031;-85
2023/07/15 12:06:45;;;;;;;2.40;2.20;;;;;;;;;;10558721;28;20051;-87
2023/07/15 12:11:46;;;;;;;3.30;2.17;;;;;;;;;;10551329;28;20096;-87
2023/07/15 12:16:51;;;;;;;4.70;2.83;;;;;;;;;;10542634;28;20069;-85
2023/07/15 12:21:52;;;;;;;2.88;2.38;;;;;;;;;;10533257;28;20059;-86
2023/07/15 12:26:53;;;;;;;2.95;2.38;;;;;;;;;;10549390;28;20044;-88
2023/07/15 12:31:54;;;;;;;2.65;1.95;;;;;;;;;;10534510;28;20036;-87
2023/07/15 12:36:58;;;;;;;2.63;2.10;;;;;;;;;;10560767;28;20630;-89
2023/07/15 12:41:59;;;;;;;3.53;2.15;;;;;;;;;;10549786;28;20073;-87
2023/07/15 12:47:00;;;;;;;4.35;2.42;;;;;;;;;;10575670;28;20027;-85
2023/07/15 12:52:01;;;;;;;2.67;2.22;;;;;;;;;;10555867;28;20046;-86
2023/07/15 12:57:02;;;;;;;2.60;2.40;;;;;;;;;;10557788;28;20059;-86
2023/07/15 13:02:03;;;;;;;4.95;2.55;;;;;;;;;;10561529;28;20372;-87
2023/07/15 13:07:04;;;;;;;5.90;2.72;;;;;;;;;;10534842;28;20052;-87
2023/07/15 13:12:05;;;;;;;3.35;2.17;;;;;;;;;;10548154;28;20030;-87
2023/07/15 13:17:06;;;;;;;3.75;2.30;;;;;;;;;;10561810;28;20032;-88
2023/07/15 13:22:07;;;;;;;4.63;3.20;;;;;;;;;;10565807;28;20028;-87
2023/07/15 13:27:08;;;;;;;3.05;2.58;;;;;;;;;;10544480;28;20032;-88
2023/07/15 13:32:09;;;;;;;3.03;2.28;;;;;;;;;;10540014;28;20386;-86
2023/07/15 13:37:10;;;;;;;5.25;2.17;;;;;;;;;;10553135;28;20076;-86
2023/07/15 13:42:13;;;;;;;3.25;2.28;;;;;;;;;;10544162;28;20040;-87
2023/07/15 13:47:14;;;;;;;7.65;2.85;;;;;;;;;;10528925;28;20032;-85
2023/07/15 13:52:15;;;;;;;6.55;1.83;;;;;;;;;;10527266;28;20040;-86
2023/07/15 13:57:16;;;;;;;2.33;2.00;;;;;;;;;;10525645;28;20039;-87
2023/07/15 14:02:18;;;;;;;3.03;2.22;;;;;;;;;;10529565;28;20026;-88
2023/07/15 14:07:20;;;;;;;2.42;2.22;;;;;;;;;;10521827;28;20143;-88
2023/07/15 14:12:21;;;;;;;4.32;3.33;;;;;;;;;;10526061;28;20040;-88
2023/07/15 14:17:22;;;;;;;4.38;2.42;;;;;;;;;;10525301;28;20060;-86
2023/07/15 14:22:23;;;;;;;3.13;2.30;;;;;;;;;;10504607;28;20483;-87
2023/07/15 14:27:24;;;;;;;4.38;2.30;;;;;;;;;;10517927;28;20033;-86
2023/07/15 14:32:25;;;;;;;3.05;2.70;;;;;;;;;;10525766;28;20094;-86
2023/07/15 14:37:26;;;;;;;2.95;2.08;;;;;;;;;;10519364;28;20764;-86
2023/07/15 14:42:27;;;;;;;2.58;2.13;;;;;;;;;;10524977;28;20099;-90
2023/07/15 14:47:28;;;;;;;2.47;2.17;;;;;;;;;;10510106;28;20037;-85
2023/07/15 14:52:29;;;;;;;2.45;2.20;;;;;;;;;;10515336;28;20445;-86
2023/07/15 14:57:30;;;;;;;3.03;2.28;;;;;;;;;;10524220;28;20028;-84
2023/07/15 15:02:31;;;;;;;2.38;2.00;;;;;;;;;;10529384;28;20076;-86
2023/07/15 15:07:32;;;;;;;4.15;2.13;;;;;;;;;;10563286;28;20062;-86
2023/07/15 15:12:33;;;;;;;5.68;2.22;;;;;;;;;;10553705;28;20041;-88
2023/07/15 15:17:34;;;;;;;3.80;2.40;;;;;;;;;;10541760;28;20031;-86
2023/07/15 15:22:37;;;;;;;3.90;2.65;;;;;;;;;;10539214;28;20024;-89
2023/07/15 15:27:38;;;;;;;2.25;2.05;;;;;;;;;;10515209;28;20033;-87
2023/07/15 15:32:39;;;;;;;3.22;2.33;;;;;;;;;;10513317;28;20032;-90
2023/07/15 15:37:40;;;;;;;2.38;2.17;;;;;;;;;;10514140;28;20420;-87
2023/07/15 15:42:41;;;;;;;2.63;2.17;;;;;;;;;;10524088;28;20128;-87
2023/07/15 15:47:42;;;;;;;3.40;2.47;;;;;;;;;;10514116;28;20127;-85
2023/07/15 15:52:46;;;;;;;3.97;2.40;;;;;;;;;;10516508;28;20044;-87
2023/07/15 15:57:47;;;;;;;2.45;2.20;;;;;;;;;;10501860;28;20036;-88
2023/07/15 16:02:48;;;;;;;3.15;2.20;;;;;;;;;;10501365;28;20043;-88
2023/07/15 16:07:50;;;;;;;3.53;2.03;;;;;;;;;;10525270;28;20139;-89
2023/07/15 16:12:51;;;;;;;5.28;2.42;;;;;;;;;;10515849;28;20228;-88
2023/07/15 16:17:52;;;;;;;5.88;2.70;;;;;;;;;;10519011;28;20051;-89
2023/07/15 16:22:53;;;;;;;3.47;2.17;;;;;;;;;;10520441;28;20047;-90
2023/07/15 16:27:54;;;;;;;2.20;2.00;;;;;;;;;;10526236;28;20032;-92
2023/07/15 16:32:55;;;;;;;3.65;2.45;;;;;;;;;;10531699;28;20050;-89
2023/07/15 16:37:56;;;;;;;4.20;2.45;;;;;;;;;;10528573;28;20647;-88
2023/07/15 16:43:00;;;;;;;3.92;2.35;;;;;;;;;;10531013;28;20028;-89
2023/07/15 16:48:01;;;;;;;3.08;2.58;;;;;;;;;;10536131;22;20423;-86
2023/07/15 16:53:02;;;;;;;3.05;2.17;;;;;;;;;;10540666;28;20100;-86
2023/07/15 16:58:03;;;;;;;2.63;2.20;;;;;;;;;;10528991;28;20586;-84
2023/07/15 17:03:04;;;;;;;5.28;2.38;;;;;;;;;;10543401;28;20088;-86
2023/07/15 17:08:12;;;;;;;4.10;2.45;;;;;;;;;;10535660;28;20476;-91
2023/07/15 17:13:13;;;;;;;2.90;2.10;;;;;;;;;;10517024;28;20054;-84
2023/07/15 17:18:43;;;;;;;2.80;2.15;;;;;;;;;;10529980;28;20024;-91
2023/07/15 17:23:44;;;;;;;3.55;2.28;;;;;;;;;;10523127;28;20064;-88
2023/07/15 17:28:45;;;;;;;7.13;2.75;;;;;;;;;;10525259;28;20031;-88
2023/07/15 17:33:46;;;;;;;3.85;2.40;;;;;;;;;;10521322;28;20108;-88
2023/07/15 17:38:47;;;;;;;4.97;2.45;;;;;;;;;;10566101;22;20467;-86
2023/07/15 17:43:49;;;;;;;4.43;2.80;;;;;;;;;;10540700;28;20024;-89
2023/07/15 17:48:50;;;;;;;3.90;2.80;;;;;;;;;;10545432;28;20040;-89
2023/07/15 17:53:51;;;;;;;4.38;3.13;;;;;;;;;;10554540;28;20044;-87
2023/07/15 17:58:54;;;;;;;5.22;3.28;;;;;;;;;;10539916;28;20059;-89
2023/07/15 18:03:55;;;;;;;23.25;14.43;;;;;;;;;;10541231;28;20035;-88
2023/07/15 18:08:59;;;;;;;10.77;7.20;;;;;;;;;;10555344;28;20040;-90
2023/07/15 18:14:00;;;;;;;9.17;6.73;;;;;;;;;;10503761;28;20024;-87
2023/07/15 18:19:01;;;;;;;11.85;8.52;;;;;;;;;;10497464;28;20177;-88
2023/07/15 18:24:02;;;;;;;11.45;8.07;;;;;;;;;;10494128;28;20028;-89
2023/07/15 18:29:03;;;;;;;9.02;7.07;;;;;;;;;;10486053;28;20124;-88
2023/07/15 18:34:04;;;;;;;11.07;8.70;;;;;;;;;;10492471;28;20032;-88
2023/07/15 18:39:09;;;;;;;7.28;5.90;;;;;;;;;;10486559;28;20045;-89
2023/07/15 18:44:10;;;;;;;7.97;5.28;;;;;;;;;;10492739;28;20044;-88
2023/07/15 18:49:11;;;;;;;13.30;10.30;;;;;;;;;;10496766;28;20055;-88
2023/07/15 18:54:15;;;;;;;6.85;5.57;;;;;;;;;;10482706;28;20032;-87
2023/07/15 18:59:16;;;;;;;6.23;5.27;;;;;;;;;;10488575;28;20097;-87
2023/07/15 19:04:17;;;;;;;7.80;6.22;;;;;;;;;;10484062;28;20488;-86
2023/07/15 19:09:18;;;;;;;5.93;4.72;;;;;;;;;;10483600;28;20041;-87
2023/07/15 19:14:19;;;;;;;6.15;5.00;;;;;;;;;;10487149;28;20472;-86
2023/07/15 19:19:20;;;;;;;11.55;5.10;;;;;;;;;;10484065;28;20372;-87
2023/07/15 19:24:21;;;;;;;6.15;4.93;;;;;;;;;;10500320;28;20029;-86
2023/07/15 19:29:22;;;;;;;6.90;5.25;;;;;;;;;;10502155;28;21207;-86
2023/07/15 19:34:24;;;;;;;6.43;4.50;;;;;;;;;;10483920;28;20024;-85
2023/07/15 19:39:24;;;;;;;7.40;5.68;;;;;;;;;;10484395;28;20048;-86
2023/07/15 19:44:25;;;;;;;7.38;5.28;;;;;;;;;;10494288;28;20041;-86
2023/07/15 19:49:27;;;;;;;8.80;5.47;;;;;;;;;;10492838;28;20029;-87
2023/07/15 19:54:27;;;;;;;9.23;6.95;;;;;;;;;;10482428;28;20038;-86
2023/07/15 19:59:29;;;;;;;11.88;8.57;;;;;;;;;;10490519;28;20036;-87
2023/07/15 20:04:31;;;;;;;12.77;6.95;;;;;;;;;;10491876;28;20072;-85
2023/07/15 20:09:32;;;;;;;8.85;6.88;;;;;;;;;;10490966;28;20036;-85
2023/07/15 20:14:32;;;;;;;9.48;7.07;;;;;;;;;;10504173;28;20043;-85
2023/07/15 20:19:33;;;;;;;18.92;14.30;;;;;;;;;;10488811;28;20047;-86
2023/07/15 20:24:35;;;;;;;10.18;8.13;;;;;;;;;;10492056;28;20028;-85
2023/07/15 20:29:36;;;;;;;9.30;6.18;;;;;;;;;;10502474;28;20032;-85
2023/07/15 20:34:37;;;;;;;9.75;6.88;;;;;;;;;;10489964;28;20054;-86
2023/07/15 20:39:38;;;;;;;8.38;5.90;;;;;;;;;;10491117;28;20121;-85
2023/07/15 20:44:39;;;;;;;11.60;7.65;;;;;;;;;;10499929;28;20029;-85
2023/07/15 20:49:40;;;;;;;7.97;6.35;;;;;;;;;;10490820;28;20036;-85
2023/07/15 20:54:41;;;;;;;9.57;6.32;;;;;;;;;;10497495;28;20043;-85
2023/07/15 20:59:42;;;;;;;9.30;6.70;;;;;;;;;;10493774;28;20039;-87
2023/07/15 21:04:45;;;;;;;9.73;7.20;;;;;;;;;;10495871;28;20078;-85
2023/07/15 21:09:46;;;;;;;11.57;7.82;;;;;;;;;;10487976;28;20048;-85
2023/07/15 21:14:47;;;;;;;10.90;7.50;;;;;;;;;;10493017;28;20037;-85
2023/07/15 21:19:49;;;;;;;9.38;7.45;;;;;;;;;;10490129;28;20052;-86
2023/07/15 21:24:50;;;;;;;10.48;6.65;;;;;;;;;;10497503;28;20031;-81
2023/07/15 21:29:51;;;;;;;10.07;7.18;;;;;;;;;;10496226;28;20519;-82
2023/07/15 21:34:52;;;;;;;9.68;7.57;;;;;;;;;;10490575;28;20083;-82
2023/07/15 21:39:53;;;;;;;9.43;7.72;;;;;;;;;;10488206;28;20083;-82
2023/07/15 21:44:55;;;;;;;9.07;8.00;;;;;;;;;;10500459;28;20033;-81
2023/07/15 21:49:56;;;;;;;13.05;8.30;;;;;;;;;;10488661;28;20644;-82
2023/07/15 21:54:57;;;;;;;8.50;7.60;;;;;;;;;;10491374;28;20029;-82
2023/07/15 21:59:58;;;;;;;9.90;7.72;;;;;;;;;;10488230;28;20435;-82
2023/07/15 22:04:59;;;;;;;11.55;8.77;;;;;;;;;;10488931;28;20487;-82
2023/07/15 22:10:00;;;;;;;10.23;8.20;;;;;;;;;;10488533;28;20056;-82
2023/07/15 22:15:01;;;;;;;9.32;8.07;;;;;;;;;;10487721;28;20032;-82
2023/07/15 22:20:03;;;;;;;12.20;8.68;;;;;;;;;;10487371;28;20043;-82
2023/07/15 22:25:04;;;;;;;9.88;8.63;;;;;;;;;;10487266;28;20024;-82
2023/07/15 22:30:05;;;;;;;11.57;9.02;;;;;;;;;;10486969;28;20033;-82
2023/07/15 22:35:06;;;;;;;10.30;8.13;;;;;;;;;;10486503;28;20033;-82
2023/07/15 22:40:08;;;;;;;9.32;8.13;;;;;;;;;;10489339;28;20029;-81
2023/07/15 22:45:09;;;;;;;9.93;8.55;;;;;;;;;;10486784;28;20546;-82
2023/07/15 22:50:10;;;;;;;9.70;7.75;;;;;;;;;;10487093;28;20039;-83
2023/07/15 22:55:11;;;;;;;10.00;8.23;;;;;;;;;;10488039;28;20036;-83
2023/07/15 23:00:12;;;;;;;9.60;7.90;;;;;;;;;;10496804;28;20023;-82
2023/07/15 23:05:13;;;;;;;11.60;8.32;;;;;;;;;;10486207;28;20028;-81
2023/07/15 23:10:14;;;;;;;11.55;8.32;;;;;;;;;;10485767;28;20036;-82
2023/07/15 23:15:15;;;;;;;9.77;8.35;;;;;;;;;;10492133;28;20443;-82
2023/07/15 23:20:16;;;;;;;11.60;8.02;;;;;;;;;;10485636;28;20032;-82
2023/07/15 23:25:17;;;;;;;9.52;8.10;;;;;;;;;;10485134;28;20029;-82
2023/07/15 23:30:18;;;;;;;11.40;8.48;;;;;;;;;;10487435;28;20036;-82
2023/07/15 23:35:19;;;;;;;11.65;9.10;;;;;;;;;;10488646;28;20558;-82
2023/07/15 23:40:20;;;;;;;9.23;8.15;;;;;;;;;;10484993;28;20097;-82
2023/07/15 23:45:21;;;;;;;11.73;8.88;;;;;;;;;;10485029;28;20432;-82
2023/07/15 23:50:22;;;;;;;9.52;7.95;;;;;;;;;;10484390;28;20039;-83
2023/07/15 23:55:23;;;;;;;10.98;7.90;;;;;;;;;;10484982;28;20492;-82
